Latest Weather Observations for Tarcoola

IDS60801

Issued at 8:32 pm CST Friday 22 May 2015 (issued every 30 minutes, with the page automatically refreshed every 10 minutes)

About weather observations | Map of weather stations | Latest weather observations for SA | Other Formats
Station Details ID: 016098 Name: TARCOOLA AERO Lat: -30.71 Lon: 134.58 Height: 123.0 m
Data from the previous 72 hours. | See also: Recent months at Tarcoola
Date/Time
CST
Temp
°C
App
Temp
°C
Dew
Point
Rel
Hum
%
Delta-T
°C
Wind Press
QNH
hPa
Press
MSL
hPa
Rain
since 9 am
mm
Dir
 
Spd
km/h
Gust
km/h
Spd
kts
Gust
kts
22/08:30pm 10.5 7.6 4.9 68 2.5 SSE 9 11 5 6 1030.2 1030.1 0.2
22/08:00pm 11.0 7.8 4.9 66 2.8 SE 11 13 6 7 1030.1 1030.0 0.2
22/07:30pm 11.5 8.2 4.7 63 3.1 ESE 11 13 6 7 1029.8 1029.7 0.2
22/07:00pm 11.9 9.0 4.6 61 3.3 SE 9 11 5 6 1029.7 1029.6 0.2
22/06:30pm 13.0 10.1 4.4 56 3.9 SE 9 11 5 6 1029.6 1029.5 0.2
22/06:00pm 14.1 10.7 3.8 50 4.7 SE 11 13 6 7 1029.2 1029.1 0.2
22/05:30pm 15.0 11.1 3.2 45 5.3 SE 13 19 7 10 1029.1 1029.0 0.2
22/05:00pm 15.6 11.3 3.1 43 5.7 SE 15 19 8 10 1029.1 1029.0 0.2
22/04:30pm 15.9 12.1 4.0 45 5.5 SE 13 22 7 12 1029.2 1029.1 0.2
22/04:00pm 15.9 11.7 3.7 44 5.7 ESE 15 19 8 10 1029.3 1029.2 0.2
22/03:30pm 16.1 11.8 3.2 42 5.9 E 15 20 8 11 1029.4 1029.3 0.2
22/03:00pm 16.1 12.2 3.2 42 5.9 ENE 13 19 7 10 1029.5 1029.4 0.2
22/02:30pm 16.7 13.3 4.1 43 5.9 E 11 20 6 11 1029.8 1029.7 0.2
22/02:00pm 15.9 12.1 4.0 45 5.5 ENE 13 19 7 10 1030.3 1030.2 0.0
22/01:30pm 16.4 13.1 4.4 45 5.6 ENE 11 20 6 11 1030.7 1030.6 0.0
22/01:00pm 15.5 11.8 4.5 48 5.2 ESE 13 19 7 10 1031.2 1031.1 0.0
22/12:30pm 15.7 12.7 5.9 52 4.7 E 11 17 6 9 1031.2 1031.1 0.0
22/12:00pm 14.5 12.2 5.8 56 4.1 ENE 7 13 4 7 1032.0 1031.9 0.0
22/11:30am 14.4 11.8 6.0 57 4.0 ENE 9 15 5 8 1032.8 1032.7 0.0
22/11:00am 13.8 11.2 6.2 60 3.6 ENE 9 13 5 7 1033.1 1033.0 0.0
22/10:30am 12.8 10.3 6.6 66 3.0 ENE 9 13 5 7 1033.4 1033.3 0.0
22/10:00am 12.4 10.0 6.9 69 2.7 ENE 9 15 5 8 1033.2 1033.1 0.0
22/09:30am 9.9 8.4 7.0 82 1.4 WSW 4 7 2 4 1032.9 1032.8 0.0
22/09:00am 7.4 5.1 5.7 89 0.8 SSW 7 9 4 5 1032.7 1032.6 0.0
22/08:30am 5.4 2.8 4.4 93 0.4 WSW 7 7 4 4 1032.7 1032.6 0.0
22/08:00am 4.3 1.5 3.4 94 0.4 WSW 7 9 4 5 1032.5 1032.4 0.0
22/07:30am 2.9 -0.5 2.0 94 0.4 W 9 11 5 6 1032.2 1032.1 0.0
22/07:00am 2.0 -0.2 1.0 93 0.4 WSW 2 7 1 4 1031.9 1031.8 0.0
22/06:30am 2.5 0.0 1.5 93 0.4 SW 4 6 2 3 1031.4 1031.3 0.0
22/06:00am 2.6 -0.3 1.4 92 0.5 SW 6 6 3 3 1031.1 1031.0 0.0
22/05:30am 3.3 0.3 2.3 93 0.4 W 7 9 4 5 1030.8 1030.7 0.0
22/05:00am 3.2 -0.2 2.0 92 0.5 WSW 9 11 5 6 1030.5 1030.4 0.0
22/04:30am 3.5 0.2 2.3 92 0.5 WSW 9 11 5 6 1030.3 1030.2 0.0
22/04:00am 3.8 0.5 2.6 92 0.5 WSW 9 11 5 6 1030.3 1030.2 0.0
22/03:30am 3.7 0.4 2.4 91 0.5 WSW 9 11 5 6 1030.2 1030.1 0.0
22/03:00am 4.3 1.1 3.0 91 0.5 WSW 9 11 5 6 1030.1 1030.0 0.0
22/02:30am 4.5 1.8 2.8 89 0.7 SW 6 7 3 4 1030.2 1030.1 0.0
22/02:00am 4.7 1.9 3.0 89 0.7 SW 7 9 4 5 1030.4 1030.3 0.0
22/01:30am 5.0 2.2 3.3 89 0.7 SW 7 7 4 4 1030.4 1030.3 0.0
22/01:00am 4.6 2.0 3.1 90 0.6 SSW 6 7 3 4 1030.4 1030.3 0.0
22/12:30am 5.0 1.8 3.2 88 0.7 S 9 11 5 6 1030.5 1030.4 0.0
22/12:00am 5.2 1.7 3.5 89 0.7 SW 11 11 6 6 1030.8 1030.7 0.0
 
Date/Time
CST
Temp
°C
App
Temp
°C
Dew
Point
Rel
Hum
%
Delta-T
°C
Wind Press
QNH
hPa
Press
MSL
hPa
Rain
since 9 am
mm
Dir
 
Spd
km/h
Gust
km/h
Spd
kts
Gust
kts
21/11:30pm 5.7 2.3 3.9 88 0.8 WSW 11 13 6 7 1030.8 1030.7 0.0
21/11:00pm 6.3 3.3 4.1 86 0.9 SW 9 11 5 6 1030.8 1030.7 0.0
21/10:30pm 6.4 3.4 4.2 86 0.9 SW 9 13 5 7 1030.9 1030.8 0.0
21/10:00pm 6.5 4.1 4.3 86 1.0 SW 6 9 3 5 1031.1 1031.0 0.0
21/09:30pm 6.8 4.5 4.6 86 1.0 SSW 6 7 3 4 1031.1 1031.0 0.0
21/09:00pm 7.7 5.2 4.7 81 1.3 SSW 7 7 4 4 1031.1 1031.0 0.0
21/08:30pm 8.1 5.7 5.2 82 1.3 SSE 7 9 4 5 1030.8 1030.7 0.0
21/08:00pm 9.1 6.6 4.7 74 2.0 SSW 7 9 4 5 1030.7 1030.6 0.0
21/07:30pm 10.3 7.4 4.7 68 2.5 S 9 9 5 5 1030.5 1030.4 0.0
21/07:00pm 11.1 7.9 5.0 66 2.8 SSW 11 11 6 6 1030.4 1030.3 0.0
21/06:30pm 12.3 9.4 4.8 60 3.4 S 9 11 5 6 1030.4 1030.3 0.0
21/06:00pm 13.4 10.0 4.0 53 4.3 S 11 15 6 8 1030.3 1030.2 0.0
21/05:30pm 14.2 9.2 3.7 49 4.8 SSE 19 26 10 14 1030.2 1030.1 0.0
21/05:00pm 14.7 9.3 2.6 44 5.4 S 20 28 11 15 1030.0 1029.9 0.0
21/04:30pm 15.2 10.2 3.4 45 5.4 SSW 19 24 10 13 1029.8 1029.7 0.0
21/04:00pm 15.3 9.4 1.4 39 6.1 S 22 33 12 18 1029.7 1029.6 0.0
21/03:30pm 14.7 9.0 2.6 44 5.4 S 22 33 12 18 1029.8 1029.7 0.0
21/03:00pm 15.0 8.9 2.9 44 5.4 SSW 24 33 13 18 1029.8 1029.7 0.0
21/02:30pm 15.0 9.5 3.8 47 5.1 S 22 30 12 16 1029.6 1029.5 0.0
21/02:00pm 15.0 10.1 5.2 52 4.7 SSW 20 28 11 15 1029.7 1029.6 0.0
21/01:30pm 14.5 9.2 5.0 53 4.4 S 22 32 12 17 1030.0 1029.9 0.0
21/01:00pm 14.5 8.7 4.2 50 4.8 S 24 37 13 20 1030.2 1030.1 0.0
21/12:30pm 14.7 9.2 6.0 56 4.2 S 24 35 13 19 1030.6 1030.5 0.0
21/12:00pm 14.2 9.2 6.3 59 3.8 SSW 22 33 12 18 1030.9 1030.8 0.0
21/11:30am 14.1 9.8 6.9 62 3.5 S 19 24 10 13 1031.2 1031.1 0.0
21/11:00am 12.7 8.2 6.3 65 3.1 SSW 19 26 10 14 1031.2 1031.1 0.0
21/10:30am 11.1 8.0 7.4 78 1.8 SW 13 17 7 9 1031.4 1031.3 0.0
21/10:00am 9.5 6.2 6.6 82 1.4 SW 13 17 7 9 1031.3 1031.2 0.0
21/09:30am 8.0 4.6 6.0 87 0.9 SW 13 17 7 9 1031.1 1031.0 0.0
21/09:00am 6.7 4.0 5.7 93 0.4 SW 9 13 5 7 1030.9 1030.8 6.4
21/08:30am 5.7 2.1 4.8 94 0.4 SW 13 15 7 8 1030.6 1030.5 6.4
21/08:00am 4.2 1.0 3.3 94 0.4 WSW 9 13 5 7 1030.2 1030.1 6.4
21/07:30am 3.4 -0.3 2.5 94 0.4 SW 11 13 6 7 1029.8 1029.7 6.4
21/07:00am 3.7 0.1 2.8 94 0.4 WSW 11 13 6 7 1029.5 1029.4 6.4
21/06:30am 3.4 0.1 2.5 94 0.4 SW 9 11 5 6 1029.0 1028.9 6.4
21/06:00am 3.7 0.5 2.8 94 0.4 WSW 9 11 5 6 1028.8 1028.8 6.4
21/05:30am 3.9 0.7 3.0 94 0.4 WSW 9 11 5 6 1028.3 1028.2 6.4
21/05:00am 3.9 0.3 3.0 94 0.4 SSW 11 13 6 7 1028.1 1028.0 6.4
21/04:30am 3.8 0.9 2.8 93 0.4 SW 7 9 4 5 1028.2 1028.1 6.4
21/04:00am 4.5 1.4 3.5 93 0.4 SW 9 11 5 6 1028.0 1027.9 6.4
21/03:30am 4.9 1.5 3.9 93 0.4 WSW 11 13 6 7 1028.0 1027.9 6.4
21/03:00am 4.8 1.3 3.6 92 0.5 SW 11 13 6 7 1028.0 1027.9 6.4
21/02:30am 5.0 2.3 3.8 92 0.5 WSW 7 9 4 5 1027.9 1027.8 6.4
21/02:00am 5.3 2.7 4.0 91 0.6 WSW 7 11 4 6 1027.9 1027.8 6.4
21/01:30am 5.9 3.0 4.5 91 0.6 SW 9 11 5 6 1027.8 1027.7 6.4
21/01:00am 6.5 3.3 5.0 90 0.7 SW 11 13 6 7 1027.6 1027.5 6.2
21/12:30am 6.7 3.2 5.3 91 0.6 WSW 13 15 7 8 1027.6 1027.5 6.2
21/12:00am 6.9 4.1 5.2 89 0.7 WSW 9 11 5 6 1027.5 1027.4 6.2
 
Date/Time
CST
Temp
°C
App
Temp
°C
Dew
Point
Rel
Hum
%
Delta-T
°C
Wind Press
QNH
hPa
Press
MSL
hPa
Rain
since 9 am
mm
Dir
 
Spd
km/h
Gust
km/h
Spd
kts
Gust
kts
20/11:30pm 7.2 4.5 5.5 89 0.8 WSW 9 11 5 6 1027.5 1027.4 6.2
20/11:00pm 7.7 4.7 6.0 89 0.8 SW 11 11 6 6 1027.2 1027.1 6.2
20/10:30pm 8.3 5.4 6.4 88 0.9 SW 11 13 6 7 1027.0 1026.9 6.2
20/10:00pm 9.1 5.8 6.5 84 1.2 SW 13 15 7 8 1027.0 1026.9 6.2
20/09:30pm 10.2 7.1 7.4 83 1.3 SW 13 17 7 9 1026.8 1026.7 6.2
20/09:00pm 10.7 7.0 8.1 84 1.3 SW 17 24 9 13 1026.4 1026.3 6.2
20/08:30pm 11.2 8.6 9.3 88 1.0 WSW 13 15 7 8 1026.0 1025.9 6.2
20/08:00pm 11.5 9.8 9.9 90 0.8 WSW 9 11 5 6 1025.7 1025.6 6.2
20/07:30pm 11.7 10.7 10.4 92 0.7 WSW 6 7 3 4 1025.5 1025.4 6.2
20/07:00pm 11.6 10.6 10.2 91 0.7 SW 6 7 3 4 1025.0 1024.9 6.2
20/06:30pm 11.8 10.8 10.4 91 0.7 SW 6 7 3 4 1024.5 1024.4 6.2
20/06:00pm 11.7 10.5 10.3 91 0.7 SW 7 9 4 5 1023.9 1023.8 6.2
20/05:30pm 11.7 10.4 10.1 90 0.8 SW 7 9 4 5 1023.6 1023.5 6.2
20/05:00pm 11.5 10.2 9.8 89 0.9 SW 7 13 4 7 1023.3 1023.2 6.2
20/04:30pm 11.4 8.9 9.8 90 0.8 SSW 13 17 7 9 1023.2 1023.1 5.8
20/04:00pm 11.3 7.3 8.9 85 1.2 SW 20 28 11 15 1023.0 1022.9 4.2
20/03:30pm 12.4 7.6 8.7 78 1.8 WSW 24 39 13 21 1022.3 1022.2 1.8
20/03:00pm 13.0 11.5 10.4 84 1.4 WSW 9 13 5 7 1022.1 1022.0 1.4
20/02:30pm 15.1 11.8 8.1 63 3.5 SSE 15 24 8 13 1021.8 1021.7 0.8
20/02:00pm 15.7 11.9 7.7 59 4.0 SSW 17 22 9 12 1021.8 1021.7 0.8
20/01:30pm 14.4 10.5 9.4 72 2.6 SSW 20 28 11 15 1021.9 1021.8 0.8
20/01:00pm 15.2 13.3 9.1 67 3.1 WSW 9 17 5 9 1022.0 1021.9 0.8
20/12:30pm 12.8 11.3 9.1 78 1.9 S 7 9 4 5 1022.5 1022.4 0.8
20/12:00pm 14.5 12.2 8.9 69 2.8 S 11 20 6 11 1022.8 1022.7 0.2
20/11:30am 14.6 11.6 9.2 70 2.8 SSW 15 20 8 11 1023.1 1023.0 0.2
20/11:00am 13.8 12.1 9.8 77 2.1 SW 9 15 5 8 1023.2 1023.1 0.2
20/10:30am 12.7 10.8 10.6 87 1.1 SSW 11 15 6 8 1023.4 1023.3 0.2
20/10:00am 14.2 11.6 9.4 73 2.5 SSW 13 17 7 9 1023.2 1023.1 0.0
20/09:30am 13.4 10.6 10.0 80 1.8 SSW 15 20 8 11 1022.8 1022.7 0.0
20/09:00am 13.0 10.1 9.6 80 1.7 SW 15 19 8 10 1022.4 1022.3 0.0
20/08:30am 12.7 10.6 9.7 82 1.5 SW 11 13 6 7 1022.1 1022.0 0.0
20/08:00am 12.4 10.7 9.8 84 1.3 SW 9 13 5 7 1021.7 1021.6 0.0
20/07:30am 12.3 10.2 9.9 85 1.2 SW 11 15 6 8 1021.4 1021.2 0.0
20/07:00am 12.4 9.9 9.8 84 1.3 WSW 13 17 7 9 1021.2 1021.0 0.0
20/06:30am 12.8 10.0 10.0 83 1.4 WSW 15 19 8 10 1020.8 1020.6 0.0
20/06:00am 12.9 10.1 10.1 83 1.4 W 15 20 8 11 1020.5 1020.3 0.0
20/05:30am 12.9 10.2 10.3 84 1.3 WSW 15 20 8 11 1019.7 1019.6 0.0
20/05:00am 12.9 10.2 10.4 85 1.3 WSW 15 19 8 10 1019.7 1019.6 0.0
20/04:30am 12.7 10.3 10.2 85 1.3 W 13 19 7 10 1019.7 1019.6 0.0
20/04:00am 13.0 10.7 10.5 85 1.3 WSW 13 17 7 9 1019.2 1019.1 0.0
20/03:30am 13.1 10.8 10.5 84 1.4 WSW 13 17 7 9 1019.1 1019.0 0.0
20/03:00am 13.0 11.0 10.2 83 1.5 WSW 11 15 6 8 1019.3 1019.2 0.0
20/02:30am 13.0 10.6 10.2 83 1.5 W 13 15 7 8 1019.3 1019.2 0.0
20/02:00am 12.8 10.3 9.8 82 1.5 WSW 13 19 7 10 1019.0 1018.9 0.0
20/01:30am 12.5 9.6 9.5 82 1.5 WSW 15 17 8 9 1018.9 1018.8 0.0
20/01:00am 12.5 9.8 9.1 80 1.7 W 13 17 7 9 1019.0 1018.9 0.0
20/12:30am 12.7 9.7 9.3 80 1.7 W 15 20 8 11 1018.8 1018.7 0.0
20/12:00am 12.8 10.2 9.4 80 1.7 W 13 15 7 8 1018.6 1018.5 0.0
 
Date/Time
CST
Temp
°C
App
Temp
°C
Dew
Point
Rel
Hum
%
Delta-T
°C
Wind Press
QNH
hPa
Press
MSL
hPa
Rain
since 9 am
mm
Dir
 
Spd
km/h
Gust
km/h
Spd
kts
Gust
kts
19/11:30pm 12.4 10.3 9.6 83 1.4 WSW 11 15 6 8 1018.5 1018.4 0.0
19/11:00pm 11.7 9.7 8.7 82 1.5 W 9 13 5 7 1018.7 1018.6 0.0
19/10:30pm 12.0 9.9 8.3 78 1.8 WSW 9 11 5 6 1018.4 1018.3 0.0
19/10:00pm 13.4 11.5 9.1 75 2.2 SW 9 9 5 5 1018.1 1018.0 0.0
19/09:30pm 14.6 12.8 9.6 72 2.6 SW 9 11 5 6 1018.2 1018.1 0.0
19/09:00pm 15.3 13.0 10.3 72 2.6 SW 13 17 7 9 1018.2 1018.1 0.0

Other Formats:

Comma delimited format used in spreadsheet applications
http://www.bom.gov.au/fwo/IDS60801/IDS60801.94655.axf

JavaScript Object Notation format (JSON) in row-major order
http://www.bom.gov.au/fwo/IDS60801/IDS60801.94655.json